createdAt,value
2018-02-25T00:00:26.380Z,-3.50
2018-02-25T00:02:54.674Z,-3.50
2018-02-25T00:05:22.990Z,-3.50
2018-02-25T00:07:50.531Z,-3.50
2018-02-25T00:10:18.086Z,-3.50
2018-02-25T00:12:45.619Z,-3.60
2018-02-25T00:15:13.951Z,-3.50
2018-02-25T00:17:41.486Z,-3.50
2018-02-25T00:20:09.055Z,-3.60
2018-02-25T00:22:36.635Z,-3.60
2018-02-25T00:25:04.186Z,-3.60
2018-02-25T00:27:31.726Z,-3.60
2018-02-25T00:29:59.275Z,-3.70
2018-02-25T00:32:26.806Z,-3.70
2018-02-25T00:34:54.376Z,-3.70
2018-02-25T00:37:22.677Z,-3.70
2018-02-25T00:39:50.231Z,-3.80
2018-02-25T00:42:17.763Z,-3.80
2018-02-25T00:44:46.081Z,-3.80
2018-02-25T00:47:13.628Z,-3.80
2018-02-25T00:49:41.179Z,-3.80
2018-02-25T00:52:09.471Z,-3.80
2018-02-25T00:54:37.030Z,-3.80
2018-02-25T00:57:04.559Z,-3.80
2018-02-25T00:59:32.120Z,-3.80
2018-02-25T01:02:00.430Z,-4.00
2018-02-25T01:04:28.045Z,-4.00
2018-02-25T01:06:55.539Z,-4.00
2018-02-25T01:09:23.089Z,-3.90
2018-02-25T01:11:51.386Z,-4.00
2018-02-25T01:14:18.938Z,-4.00
2018-02-25T01:16:46.470Z,-4.00
2018-02-25T01:19:14.815Z,-4.10
2018-02-25T01:21:42.342Z,-4.10
2018-02-25T01:24:09.903Z,-4.20
2018-02-25T01:26:37.430Z,-4.20
2018-02-25T01:29:05.757Z,-4.30
2018-02-25T01:31:33.289Z,-4.30
2018-02-25T01:34:00.882Z,-4.20
2018-02-25T01:36:28.406Z,-4.20
2018-02-25T01:38:55.958Z,-4.30
2018-02-25T01:41:24.258Z,-4.30
2018-02-25T01:43:51.815Z,-4.30
2018-02-25T01:46:19.343Z,-4.40
2018-02-25T01:48:47.663Z,-4.40
2018-02-25T01:51:15.223Z,-4.40
2018-02-25T01:53:42.783Z,-4.40
2018-02-25T01:56:10.318Z,-4.50
2018-02-25T01:58:37.894Z,-4.50
2018-02-25T02:01:05.427Z,-4.50
2018-02-25T02:03:33.727Z,-4.50
2018-02-25T02:06:01.294Z,-4.50
2018-02-25T02:08:28.827Z,-4.50
2018-02-25T02:10:57.152Z,-4.60
2018-02-25T02:13:24.688Z,-4.60
2018-02-25T02:15:52.234Z,-4.60
2018-02-25T02:18:19.767Z,-4.70
2018-02-25T02:20:47.326Z,-4.70
2018-02-25T02:23:14.859Z,-4.70
2018-02-25T02:25:42.410Z,-4.70
2018-02-25T02:28:09.938Z,-4.70
2018-02-25T02:30:37.482Z,-4.70
2018-02-25T02:33:05.779Z,-4.80
2018-02-25T02:35:33.327Z,-4.80
2018-02-25T02:38:00.859Z,-4.80
2018-02-25T02:40:28.423Z,-4.80
2018-02-25T02:42:56.725Z,-4.90
2018-02-25T02:45:24.279Z,-5.00
2018-02-25T02:47:52.577Z,-5.00
2018-02-25T02:50:20.126Z,-5.00
2018-02-25T02:52:47.654Z,-5.00
2018-02-25T02:55:15.202Z,-5.00
2018-02-25T02:57:42.733Z,-5.00
2018-02-25T03:00:10.291Z,-5.00
2018-02-25T03:02:37.823Z,-5.00
2018-02-25T03:05:05.384Z,-5.00
2018-02-25T03:07:32.927Z,-5.20
2018-02-25T03:10:01.251Z,-5.20
2018-02-25T03:12:28.779Z,-5.20
2018-02-25T03:14:56.341Z,-5.20
2018-02-25T03:17:23.875Z,-5.20
2018-02-25T03:19:52.197Z,-5.30
2018-02-25T03:22:19.722Z,-5.30
2018-02-25T03:24:48.034Z,-5.50
2018-02-25T03:27:15.566Z,-5.50
2018-02-25T03:29:43.887Z,-5.30
2018-02-25T03:32:11.428Z,-5.30
2018-02-25T03:34:38.994Z,-5.30
2018-02-25T03:37:06.527Z,-5.40
2018-02-25T03:39:34.089Z,-5.40
2018-02-25T03:42:01.650Z,-5.40
2018-02-25T03:44:29.205Z,-5.40
2018-02-25T03:46:56.737Z,-5.40
2018-02-25T03:49:24.289Z,-5.50
2018-02-25T03:51:51.822Z,-5.40
2018-02-25T03:54:19.378Z,-5.30
2018-02-25T03:56:46.924Z,-5.40
2018-02-25T03:59:14.495Z,-5.50
2018-02-25T04:01:42.019Z,-5.50
2018-02-25T04:04:10.335Z,-5.50
2018-02-25T04:06:37.970Z,-5.50
2018-02-25T04:09:05.500Z,-5.50
2018-02-25T04:11:33.813Z,-5.50
2018-02-25T04:14:01.347Z,-5.50
2018-02-25T04:16:29.666Z,-5.70
2018-02-25T04:18:57.193Z,-5.70
2018-02-25T04:21:24.770Z,-5.60
2018-02-25T04:23:52.298Z,-5.70
2018-02-25T04:26:20.620Z,-5.70
2018-02-25T04:28:48.152Z,-5.70
2018-02-25T04:31:15.701Z,-5.80
2018-02-25T04:33:43.998Z,-5.80
2018-02-25T04:36:11.555Z,-5.80
2018-02-25T04:38:39.114Z,-5.80
2018-02-25T04:41:06.666Z,-5.80
2018-02-25T04:43:34.198Z,-5.80
2018-02-25T04:46:01.752Z,-5.80
2018-02-25T04:48:29.283Z,-5.90
2018-02-25T04:50:56.838Z,-6.00
2018-02-25T04:53:24.376Z,-6.00
2018-02-25T04:55:51.925Z,-5.90
2018-02-25T04:58:19.461Z,-6.00
2018-02-25T05:00:47.802Z,-6.00
2018-02-25T05:03:15.325Z,-6.00
2018-02-25T05:05:42.879Z,-6.00
2018-02-25T05:08:10.419Z,-6.00
2018-02-25T05:10:38.736Z,-6.00
2018-02-25T05:13:06.266Z,-6.10
2018-02-25T05:15:34.594Z,-6.10
2018-02-25T05:18:02.162Z,-6.10
2018-02-25T05:20:29.718Z,-6.20
2018-02-25T05:22:57.246Z,-6.20
2018-02-25T05:25:24.817Z,-6.20
2018-02-25T05:27:52.354Z,-6.30
2018-02-25T05:30:19.902Z,-6.30
2018-02-25T05:32:48.194Z,-6.20
2018-02-25T05:35:15.751Z,-6.30
2018-02-25T05:37:43.286Z,-6.30
2018-02-25T05:40:10.839Z,-6.40
2018-02-25T05:42:38.365Z,-6.40
2018-02-25T05:45:05.935Z,-6.40
2018-02-25T05:47:33.462Z,-6.40
2018-02-25T05:50:01.010Z,-6.30
2018-02-25T05:52:28.539Z,-6.40
2018-02-25T05:54:56.095Z,-6.50
2018-02-25T05:57:23.633Z,-6.50
2018-02-25T05:59:51.181Z,-6.50
2018-02-25T06:02:18.706Z,-6.50
2018-02-25T06:04:46.262Z,-6.60
2018-02-25T06:07:13.794Z,-6.70
2018-02-25T06:09:41.357Z,-6.60
2018-02-25T06:12:09.662Z,-6.50
2018-02-25T06:14:37.218Z,-6.60
2018-02-25T06:17:04.754Z,-6.60
2018-02-25T06:19:32.277Z,-6.50
2018-02-25T06:21:59.838Z,-6.60
2018-02-25T06:24:27.370Z,-6.60
2018-02-25T06:26:54.926Z,-6.70
2018-02-25T06:29:22.453Z,-6.70
2018-02-25T06:31:50.010Z,-6.60
2018-02-25T06:55:15.274Z,-6.80
2018-02-25T06:57:44.318Z,-6.70
2018-02-25T07:00:11.881Z,-6.70
2018-02-25T07:02:39.413Z,-6.70
2018-02-25T07:05:06.972Z,-6.70
2018-02-25T07:07:34.507Z,-6.60
2018-02-25T07:10:02.837Z,-6.50
2018-02-25T07:12:30.365Z,-6.60
2018-02-25T07:14:57.923Z,-6.60
2018-02-25T07:17:25.454Z,-6.50
2018-02-25T07:19:53.781Z,-6.50
2018-02-25T07:22:21.315Z,-6.50
2018-02-25T07:24:48.861Z,-6.40
2018-02-25T07:27:17.187Z,-6.40
2018-02-25T07:29:44.723Z,-6.50
2018-02-25T07:32:12.283Z,-6.40
2018-02-25T07:34:39.815Z,-6.50
2018-02-25T07:37:08.139Z,-6.40
2018-02-25T07:39:35.707Z,-6.40
2018-02-25T07:42:03.266Z,-6.30
2018-02-25T07:44:30.801Z,-6.30
2018-02-25T07:46:58.350Z,-6.20
2018-02-25T07:49:25.879Z,-6.30
2018-02-25T07:51:53.437Z,-6.20
2018-02-25T07:54:20.980Z,-6.20
2018-02-25T07:56:48.537Z,-6.30
2018-02-25T07:59:16.066Z,-6.30
2018-02-25T08:01:43.627Z,-6.20
2018-02-25T08:04:11.158Z,-6.10
2018-02-25T08:06:38.722Z,-6.20
2018-02-25T08:09:06.269Z,-6.20
2018-02-25T08:11:34.590Z,-6.10
2018-02-25T08:14:02.123Z,-6.10
2018-02-25T08:16:29.682Z,-6.00
2018-02-25T08:18:57.226Z,-6.00
2018-02-25T08:21:25.550Z,-6.00
2018-02-25T08:23:53.090Z,-6.00
2018-02-25T08:26:20.654Z,-5.90
2018-02-25T08:28:48.193Z,-5.80
2018-02-25T08:31:15.758Z,-5.70
2018-02-25T08:33:43.290Z,-5.70
2018-02-25T08:36:10.850Z,-5.60
2018-02-25T08:38:39.155Z,-5.60
2018-02-25T08:41:06.903Z,-5.60
2018-02-25T08:43:35.206Z,-5.40
2018-02-25T08:46:02.772Z,-5.40
2018-02-25T08:48:30.305Z,-5.40
2018-02-25T08:50:58.623Z,-5.40
2018-02-25T08:53:26.360Z,-5.40
2018-02-25T08:55:54.058Z,-5.30
2018-02-25T08:58:21.589Z,-5.30
2018-02-25T09:00:49.146Z,-5.20
2018-02-25T09:03:16.690Z,-5.20
2018-02-25T09:05:44.271Z,-5.00
2018-02-25T09:08:11.823Z,-4.80
2018-02-25T09:10:39.384Z,-4.80
2018-02-25T09:13:06.914Z,-4.70
2018-02-25T09:15:35.450Z,-4.60
2018-02-25T09:18:02.983Z,-4.70
2018-02-25T09:20:30.542Z,-4.70
2018-02-25T09:22:58.070Z,-4.50
2018-02-25T09:25:25.631Z,-4.40
2018-02-25T09:27:53.934Z,-4.20
2018-02-25T09:30:21.466Z,-4.20
2018-02-25T09:32:49.795Z,-4.00
2018-02-25T09:35:17.534Z,-4.10
2018-02-25T09:37:45.099Z,-4.20
2018-02-25T09:40:12.642Z,-4.10
2018-02-25T09:42:40.975Z,-4.10
2018-02-25T09:45:08.506Z,-4.10
2018-02-25T09:47:36.062Z,-4.00
2018-02-25T09:50:03.595Z,-4.00
2018-02-25T09:52:31.928Z,-3.90
2018-02-25T09:54:59.462Z,-3.90
2018-02-25T09:57:27.021Z,-3.90
2018-02-25T09:59:54.546Z,-3.90
2018-02-25T10:02:22.879Z,-3.60
2018-02-25T10:04:50.411Z,-3.60
2018-02-25T10:07:17.975Z,-3.60
2018-02-25T10:09:45.510Z,-3.50
2018-02-25T10:12:13.834Z,-3.20
2018-02-25T10:14:41.370Z,-3.30
2018-02-25T10:17:08.959Z,-3.10
2018-02-25T10:19:36.498Z,-3.00
2018-02-25T10:22:04.061Z,-2.80
2018-02-25T10:24:31.598Z,-3.00
2018-02-25T10:26:59.473Z,-3.10
2018-02-25T10:29:27.017Z,-2.90
2018-02-25T10:31:55.338Z,-2.90
2018-02-25T10:34:23.065Z,-3.00
2018-02-25T10:36:50.823Z,-2.90
2018-02-25T10:39:18.354Z,-2.70
2018-02-25T10:41:45.942Z,-2.70
2018-02-25T10:44:14.245Z,-2.60
2018-02-25T10:46:41.835Z,-2.60
2018-02-25T10:49:10.023Z,-2.50
2018-02-25T10:51:37.691Z,-2.30
2018-02-25T10:54:05.272Z,-2.10
2018-02-25T10:56:32.939Z,-2.30
2018-02-25T10:59:00.481Z,-2.30
2018-02-25T11:01:28.834Z,-2.00
2018-02-25T11:03:56.515Z,-2.00
2018-02-25T11:06:24.078Z,-2.20
2018-02-25T11:08:51.607Z,-2.30
2018-02-25T11:11:19.166Z,-2.20
2018-02-25T11:13:46.835Z,-2.20
2018-02-25T11:16:14.402Z,-2.10
2018-02-25T11:18:41.950Z,-2.10
2018-02-25T11:21:09.511Z,-2.20
2018-02-25T11:23:37.054Z,-2.10
2018-02-25T11:26:04.687Z,-2.10
2018-02-25T11:28:32.255Z,-2.10
2018-02-25T11:30:59.890Z,-2.00
2018-02-25T11:33:28.220Z,-1.80
2018-02-25T11:35:55.828Z,-1.80
2018-02-25T11:38:23.482Z,-1.70
2018-02-25T11:40:53.523Z,-1.70
2018-02-25T11:43:21.094Z,-1.70
2018-02-25T11:45:48.642Z,-2.00
2018-02-25T11:48:17.206Z,-2.00
2018-02-25T11:50:44.842Z,-2.00
2018-02-25T11:53:12.422Z,-2.00
2018-02-25T11:55:39.958Z,-2.10
2018-02-25T11:58:07.520Z,-2.00
2018-02-25T12:00:35.066Z,-1.90
2018-02-25T12:03:02.632Z,-1.90
2018-02-25T12:05:30.223Z,-1.90
2018-02-25T12:07:57.809Z,-1.80
2018-02-25T12:10:26.124Z,-1.50
2018-02-25T12:12:53.690Z,-1.50
2018-02-25T12:15:21.228Z,-1.70
2018-02-25T12:17:48.791Z,-1.80
2018-02-25T12:20:16.326Z,-1.70
2018-02-25T12:22:43.897Z,-1.50
2018-02-25T12:25:11.439Z,-1.50
2018-02-25T12:27:39.764Z,-1.60
2018-02-25T12:30:07.299Z,-1.60
2018-02-25T12:32:34.843Z,-1.50
2018-02-25T12:35:03.177Z,-1.20
2018-02-25T12:37:30.727Z,-1.20
2018-02-25T12:39:58.288Z,-1.00
2018-02-25T12:42:25.833Z,-1.10
2018-02-25T12:44:53.394Z,-1.20
2018-02-25T12:47:20.938Z,-1.20
2018-02-25T12:49:48.501Z,-1.00
2018-02-25T12:52:16.035Z,-0.90
2018-02-25T12:54:44.368Z,-1.00
2018-02-25T12:57:11.911Z,-1.00
2018-02-25T12:59:39.465Z,-0.80
2018-02-25T13:02:07.001Z,-0.90
2018-02-25T13:04:34.563Z,-1.00
2018-02-25T13:07:02.108Z,-1.00
2018-02-25T13:09:30.430Z,-0.80
2018-02-25T13:11:57.973Z,-0.80
2018-02-25T13:14:25.526Z,-1.30
2018-02-25T13:16:53.066Z,-1.40
2018-02-25T13:19:21.390Z,-1.10
2018-02-25T13:21:48.918Z,-1.10
2018-02-25T13:24:16.474Z,-1.00
2018-02-25T13:26:44.034Z,-1.20
2018-02-25T13:29:11.574Z,-1.10
2018-02-25T13:31:39.908Z,-0.90
2018-02-25T13:34:07.455Z,-0.80
2018-02-25T13:36:35.018Z,-0.80
2018-02-25T13:39:02.553Z,-0.60
2018-02-25T13:41:30.116Z,-0.60
2018-02-25T13:43:57.655Z,-0.50
2018-02-25T13:46:25.983Z,-0.40
2018-02-25T13:48:53.526Z,-0.40
2018-02-25T13:51:21.082Z,-0.40
2018-02-25T13:53:48.619Z,-0.60
2018-02-25T13:56:16.941Z,-0.70
2018-02-25T13:58:44.482Z,-0.70
2018-02-25T14:01:12.039Z,-0.70
2018-02-25T14:03:39.577Z,-0.70
2018-02-25T14:06:07.138Z,-0.60
2018-02-25T14:08:34.678Z,-0.50
2018-02-25T14:11:02.997Z,-0.40
2018-02-25T14:13:30.559Z,-0.40
2018-02-25T14:15:58.103Z,-0.40
2018-02-25T14:18:25.670Z,-0.30
2018-02-25T14:20:53.198Z,-0.50
2018-02-25T14:23:21.524Z,-0.50
2018-02-25T14:25:49.073Z,-0.50
2018-02-25T14:28:16.630Z,-0.50
2018-02-25T14:30:44.166Z,-0.60
2018-02-25T14:33:12.485Z,-0.60
2018-02-25T14:35:40.022Z,-0.60
2018-02-25T14:38:07.586Z,-0.70
2018-02-25T14:40:35.119Z,-0.80
2018-02-25T14:43:03.448Z,-0.70
2018-02-25T14:45:30.981Z,-0.70
2018-02-25T14:47:58.538Z,-0.70
2018-02-25T14:50:26.069Z,-0.60
2018-02-25T14:52:54.395Z,-0.80
2018-02-25T14:55:21.930Z,-0.80
2018-02-25T14:57:49.490Z,-0.80
2018-02-25T15:00:17.033Z,-0.80
2018-02-25T15:02:44.612Z,-0.80
2018-02-25T15:05:12.150Z,-1.00
2018-02-25T15:07:40.473Z,-1.10
2018-02-25T15:10:08.006Z,-1.10
2018-02-25T15:12:35.562Z,-1.10
2018-02-25T15:15:03.095Z,-1.10
2018-02-25T15:17:30.646Z,-1.10
2018-02-25T15:19:58.178Z,-1.20
2018-02-25T15:22:25.728Z,-1.20
2018-02-25T15:24:53.266Z,-1.20
2018-02-25T15:27:20.826Z,-1.20
2018-02-25T15:29:48.358Z,-1.30
2018-02-25T15:32:16.690Z,-1.30
2018-02-25T15:34:44.227Z,-1.30
2018-02-25T15:37:11.795Z,-1.20
2018-02-25T15:39:39.346Z,-1.20
2018-02-25T15:42:06.909Z,-1.30
2018-02-25T15:44:34.442Z,-1.40
2018-02-25T15:47:02.777Z,-1.40
2018-02-25T15:49:30.381Z,-1.40
2018-02-25T15:51:57.871Z,-1.50
2018-02-25T15:54:26.219Z,-1.60
2018-02-25T15:57:01.230Z,-1.70
2018-02-25T15:59:28.792Z,-1.70
2018-02-25T16:01:56.323Z,-1.60
2018-02-25T16:04:23.873Z,-1.70
2018-02-25T16:06:51.406Z,-1.80
2018-02-25T16:09:18.962Z,-1.80
2018-02-25T16:11:46.567Z,-1.90
2018-02-25T16:14:14.102Z,-1.90
2018-02-25T16:16:41.650Z,-2.00
2018-02-25T16:19:09.215Z,-2.10
2018-02-25T16:21:36.750Z,-2.10
2018-02-25T16:24:05.068Z,-2.10
2018-02-25T16:26:32.602Z,-2.20
2018-02-25T16:29:00.181Z,-2.20
2018-02-25T16:31:27.706Z,-2.20
2018-02-25T16:33:56.022Z,-2.20
2018-02-25T16:36:23.557Z,-2.20
2018-02-25T16:38:51.109Z,-2.30
2018-02-25T16:41:19.403Z,-2.50
2018-02-25T16:43:46.956Z,-2.50
2018-02-25T16:46:14.499Z,-2.50
2018-02-25T16:48:42.819Z,-2.50
2018-02-25T16:51:10.351Z,-2.50
2018-02-25T16:53:37.913Z,-2.60
2018-02-25T16:56:05.438Z,-2.70
2018-02-25T16:58:32.999Z,-2.70
2018-02-25T17:01:00.524Z,-2.70
2018-02-25T17:03:28.221Z,-2.80
2018-02-25T17:05:55.646Z,-2.80
2018-02-25T17:08:23.203Z,-2.80
2018-02-25T17:10:51.511Z,-2.90
2018-02-25T17:13:19.067Z,-3.00
2018-02-25T17:15:46.595Z,-2.90
2018-02-25T17:18:14.154Z,-2.90
2018-02-25T17:20:41.683Z,-2.90
2018-02-25T17:23:09.238Z,-3.00
2018-02-25T17:25:37.540Z,-3.10
2018-02-25T17:28:05.103Z,-3.10
2018-02-25T17:30:33.405Z,-3.20
2018-02-25T17:33:00.958Z,-3.20
2018-02-25T17:35:28.499Z,-3.20
2018-02-25T17:37:56.063Z,-3.30
2018-02-25T17:40:23.602Z,-3.30
2018-02-25T17:42:51.158Z,-3.30
2018-02-25T17:45:18.698Z,-3.40
2018-02-25T17:47:47.023Z,-3.30
2018-02-25T17:50:14.560Z,-3.30
2018-02-25T17:52:42.111Z,-3.30
2018-02-25T17:55:09.657Z,-3.40
2018-02-25T17:57:37.983Z,-3.50
2018-02-25T18:00:05.515Z,-3.50
2018-02-25T18:02:33.053Z,-3.50
2018-02-25T18:05:01.439Z,-3.60
2018-02-25T18:07:29.731Z,-3.60
2018-02-25T18:09:57.298Z,-3.60
2018-02-25T18:12:24.831Z,-3.60
2018-02-25T18:14:53.150Z,-3.60
2018-02-25T18:17:20.688Z,-3.70
2018-02-25T18:19:48.251Z,-3.70
2018-02-25T18:22:15.780Z,-3.70
2018-02-25T18:24:44.106Z,-3.70
2018-02-25T18:27:11.629Z,-3.70
2018-02-25T18:29:39.949Z,-3.70
2018-02-25T18:32:07.479Z,-3.70
2018-02-25T18:34:35.035Z,-3.60
2018-02-25T18:37:02.567Z,-3.70
2018-02-25T18:39:30.899Z,-3.70
2018-02-25T18:41:58.431Z,-3.70
2018-02-25T18:44:25.987Z,-3.80
2018-02-25T18:46:53.522Z,-3.70
2018-02-25T18:49:21.847Z,-3.70
2018-02-25T18:51:49.373Z,-3.70
2018-02-25T18:54:17.698Z,-3.80
2018-02-25T18:56:45.235Z,-3.80
2018-02-25T18:59:12.799Z,-3.80
2018-02-25T19:01:40.327Z,-3.80
2018-02-25T19:04:08.647Z,-3.70
2018-02-25T19:06:36.179Z,-3.70
2018-02-25T19:09:03.738Z,-3.70
2018-02-25T19:11:31.274Z,-3.70
2018-02-25T19:13:58.878Z,-3.70
2018-02-25T19:16:26.410Z,-3.70
2018-02-25T19:18:54.731Z,-3.70
2018-02-25T19:21:22.262Z,-3.70
2018-02-25T19:23:49.826Z,-3.70
2018-02-25T19:26:17.354Z,-3.70
2018-02-25T19:28:45.679Z,-3.80
2018-02-25T19:31:13.215Z,-3.80
2018-02-25T19:33:40.771Z,-3.80
2018-02-25T19:36:14.076Z,-3.80
2018-02-25T19:38:47.222Z,-3.70
2018-02-25T19:41:20.354Z,-3.70
2018-02-25T19:43:47.910Z,-3.60
2018-02-25T19:46:15.444Z,-3.70
2018-02-25T19:48:43.004Z,-3.60
2018-02-25T19:51:11.298Z,-3.60
2018-02-25T19:53:39.595Z,-3.60
2018-02-25T19:56:07.159Z,-3.60
2018-02-25T19:58:34.690Z,-3.50
2018-02-25T20:01:03.010Z,-3.50
2018-02-25T20:03:30.542Z,-3.60
2018-02-25T20:05:58.103Z,-3.60
2018-02-25T20:08:25.643Z,-3.50
2018-02-25T20:10:54.176Z,-3.50
2018-02-25T20:13:22.486Z,-3.70
2018-02-25T20:15:50.060Z,-3.70
2018-02-25T20:18:18.359Z,-3.60
2018-02-25T20:20:45.915Z,-3.60
2018-02-25T20:23:13.447Z,-3.60
2018-02-25T20:25:41.016Z,-3.80
2018-02-25T20:28:09.319Z,-3.70
2018-02-25T20:30:36.870Z,-3.70
2018-02-25T20:33:04.417Z,-3.70
2018-02-25T20:35:32.930Z,-3.80
2018-02-25T20:38:00.463Z,-3.80
2018-02-25T20:40:28.794Z,-3.80
2018-02-25T20:42:57.252Z,-3.80
2018-02-25T20:45:24.812Z,-3.80
2018-02-25T20:47:52.342Z,-3.80
2018-02-25T20:50:20.666Z,-3.90
2018-02-25T20:52:48.194Z,-3.90
2018-02-25T20:55:15.843Z,-3.80
2018-02-25T20:57:43.399Z,-3.70
2018-02-25T21:00:11.857Z,-3.70
2018-02-25T21:02:40.247Z,-3.80
2018-02-25T21:05:07.875Z,-3.80
2018-02-25T21:07:35.528Z,-3.80
2018-02-25T21:10:03.102Z,-3.90
2018-02-25T21:12:30.638Z,-3.90
2018-02-25T21:14:58.966Z,-4.00
2018-02-25T21:17:27.273Z,-4.00
2018-02-25T21:19:54.830Z,-4.00
2018-02-25T21:22:22.362Z,-3.90
2018-02-25T21:24:49.926Z,-3.90
2018-02-25T21:27:18.229Z,-3.80
2018-02-25T21:29:45.783Z,-3.80
2018-02-25T21:32:13.319Z,-3.80
2018-02-25T21:34:40.879Z,-3.80
2018-02-25T21:37:09.174Z,-3.80
2018-02-25T21:39:37.471Z,-3.80
2018-02-25T21:42:05.022Z,-3.90
2018-02-25T21:44:32.550Z,-4.00
2018-02-25T21:47:00.111Z,-4.00
2018-02-25T21:49:28.416Z,-4.10
2018-02-25T21:51:56.253Z,-4.10
2018-02-25T21:54:29.550Z,-4.10
2018-02-25T21:57:03.003Z,-4.20
2018-02-25T21:59:36.359Z,-4.20
2018-02-25T22:02:10.354Z,-4.20
2018-02-25T22:04:37.883Z,-4.20
2018-02-25T22:07:05.445Z,-4.30
2018-02-25T22:09:32.974Z,-4.40
2018-02-25T22:12:00.831Z,-4.40
2018-02-25T22:14:28.359Z,-4.40
2018-02-25T22:17:00.055Z,-4.40
2018-02-25T22:19:27.590Z,-4.40
2018-02-25T22:21:55.909Z,-4.40
2018-02-25T22:24:23.485Z,-4.40
2018-02-25T22:26:51.042Z,-4.40
2018-02-25T22:29:18.583Z,-4.40
2018-02-25T22:31:46.135Z,-4.40
2018-02-25T22:34:13.667Z,-4.40
2018-02-25T22:36:41.982Z,-4.40
2018-02-25T22:39:09.513Z,-4.40
2018-02-25T22:41:37.070Z,-4.50
2018-02-25T22:44:04.597Z,-4.40
2018-02-25T22:46:32.157Z,-4.40
2018-02-25T22:48:59.691Z,-4.40
2018-02-25T22:51:27.252Z,-4.50
2018-02-25T22:53:54.779Z,-4.40
2018-02-25T22:56:22.338Z,-4.40
2018-02-25T22:58:49.866Z,-4.40
2018-02-25T23:01:17.409Z,-4.40
2018-02-25T23:03:44.942Z,-4.50
2018-02-25T23:06:12.495Z,-4.50
2018-02-25T23:08:40.022Z,-4.60
2018-02-25T23:11:07.594Z,-4.50
2018-02-25T23:13:35.136Z,-4.60
2018-02-25T23:16:02.714Z,-4.60
2018-02-25T23:18:30.242Z,-4.60
2018-02-25T23:20:57.802Z,-4.70
2018-02-25T23:23:25.331Z,-4.70
2018-02-25T23:25:52.894Z,-4.80
2018-02-25T23:28:20.426Z,-4.80
2018-02-25T23:30:47.977Z,-4.80
2018-02-25T23:33:15.511Z,-4.90
2018-02-25T23:35:43.836Z,-4.80
2018-02-25T23:38:11.362Z,-4.80
2018-02-25T23:40:38.921Z,-4.80
2018-02-25T23:43:06.458Z,-4.90
2018-02-25T23:45:34.786Z,-4.90
2018-02-25T23:48:02.310Z,-4.90
2018-02-25T23:50:30.627Z,-5.00
2018-02-25T23:52:58.157Z,-5.00
2018-02-25T23:55:25.724Z,-5.00
2018-02-25T23:57:53.251Z,-5.00
